TimeCDT,TemperatureF,Dew PointF,Humidity,Sea Level PressureIn,VisibilityMPH,Wind Direction,Wind SpeedMPH,Gust SpeedMPH,PrecipitationIn,Events,Conditions,WindDirDegrees,DateUTC
12:53 AM,62.1,60.1,93,29.55,10.0,NE,12.7,-,0.00,,Overcast,40,2012-10-01 05:53:00
1:53 AM,62.1,60.1,93,29.53,10.0,NNE,10.4,-,N/A,,Overcast,20,2012-10-01 06:53:00
2:50 AM,60.8,60.8,100,29.52,10.0,NNE,11.5,-,0.05,Rain,Light Rain,30,2012-10-01 07:50:00
2:53 AM,61.0,60.1,97,29.52,10.0,NNE,9.2,-,0.05,,Overcast,20,2012-10-01 07:53:00
3:53 AM,61.0,60.1,97,29.50,10.0,North,8.1,-,N/A,,Overcast,10,2012-10-01 08:53:00
4:53 AM,60.1,59.0,96,29.50,5.0,NW,8.1,-,0.00,Rain,Light Rain,320,2012-10-01 09:53:00
5:53 AM,60.1,59.0,96,29.51,9.0,North,8.1,-,0.05,,Overcast,10,2012-10-01 10:53:00
6:53 AM,59.0,57.9,96,29.52,9.0,North,8.1,-,N/A,,Overcast,350,2012-10-01 11:53:00
7:53 AM,59.0,57.9,96,29.54,4.0,North,8.1,-,0.00,Rain,Light Rain,360,2012-10-01 12:53:00
8:04 AM,59.0,57.2,94,29.54,2.5,North,10.4,-,0.00,Rain,Light Rain,360,2012-10-01 13:04:00
8:31 AM,59.0,59.0,100,29.55,1.8,NNW,8.1,-,0.01,Rain,Rain,340,2012-10-01 13:31:00
8:53 AM,59.0,59.0,100,29.56,1.8,NNW,8.1,-,0.04,Rain,Light Rain,340,2012-10-01 13:53:00
9:38 AM,60.8,59.0,94,29.57,3.0,North,6.9,-,0.01,Rain,Rain,350,2012-10-01 14:38:00
9:53 AM,60.1,59.0,96,29.57,4.0,North,6.9,-,0.02,Rain,Light Rain,360,2012-10-01 14:53:00
10:11 AM,60.8,59.0,94,29.58,10.0,NNE,5.8,-,0.00,Rain,Light Rain,30,2012-10-01 15:11:00
10:31 AM,60.8,60.8,100,29.58,9.0,NNW,4.6,-,0.00,Rain,Light Rain,340,2012-10-01 15:31:00
10:53 AM,61.0,60.1,97,29.58,10.0,NNW,3.5,-,0.00,,Overcast,340,2012-10-01 15:53:00
11:53 AM,61.0,60.1,97,29.60,10.0,NNW,8.1,-,0.01,Rain,Light Rain,340,2012-10-01 16:53:00
12:40 PM,62.6,60.8,94,29.59,10.0,North,4.6,-,0.01,Rain,Light Rain,360,2012-10-01 17:40:00
12:53 PM,62.1,61.0,96,29.59,4.0,North,8.1,-,0.03,Rain,Rain,360,2012-10-01 17:53:00
1:28 PM,64.4,62.6,94,29.59,10.0,North,9.2,-,0.02,,Overcast,350,2012-10-01 18:28:00
1:37 PM,62.6,60.8,94,29.59,10.0,North,8.1,-,0.02,,Overcast,360,2012-10-01 18:37:00
1:44 PM,64.4,60.8,88,29.59,10.0,North,9.2,-,0.02,,Overcast,360,2012-10-01 18:44:00
1:53 PM,63.0,61.0,93,29.59,10.0,North,8.1,-,0.02,,Overcast,360,2012-10-01 18:53:00
2:53 PM,63.0,61.0,93,29.60,9.0,NNW,6.9,-,0.00,Rain,Light Rain,340,2012-10-01 19:53:00
3:35 PM,62.6,60.8,94,29.62,10.0,North,6.9,-,0.02,Rain,Light Rain,350,2012-10-01 20:35:00
3:53 PM,63.0,61.0,93,29.61,10.0,NNW,8.1,-,0.02,,Overcast,340,2012-10-01 20:53:00
4:53 PM,63.0,61.0,93,29.63,10.0,North,5.8,-,N/A,,Overcast,350,2012-10-01 21:53:00
5:53 PM,62.6,60.8,94,29.64,10.0,North,5.8,-,N/A,,Overcast,350,2012-10-01 22:53:00
6:15 PM,62.6,60.8,94,29.65,10.0,NNW,4.6,-,N/A,,Overcast,340,2012-10-01 23:15:00
6:53 PM,63.0,59.0,87,29.66,10.0,NNW,6.9,-,N/A,,Overcast,340,2012-10-01 23:53:00
7:53 PM,63.0,57.9,84,29.68,10.0,North,4.6,-,N/A,,Overcast,360,2012-10-02 00:53:00
8:53 PM,63.0,57.9,84,29.72,10.0,North,5.8,-,N/A,,Overcast,350,2012-10-02 01:53:00
9:53 PM,62.1,57.9,86,29.73,10.0,Calm,Calm,-,N/A,,Overcast,0,2012-10-02 02:53:00
10:53 PM,61.0,57.0,87,29.75,10.0,NNW,4.6,-,N/A,,Mostly Cloudy,340,2012-10-02 03:53:00
11:53 PM,57.9,57.0,97,29.75,5.0,Calm,Calm,-,N/A,,Partly Cloudy,0,2012-10-02 04:53:00